sensor_id;sensor_type;location;lat;lon;timestamp;P1;durP1;ratioP1;P2;durP2;ratioP2
74471;SDS011;62920;53.572;10.050;2022-09-25T00:00:34;20.80;;;10.73;;
74471;SDS011;62920;53.572;10.050;2022-09-25T00:03:00;19.45;;;10.98;;
74471;SDS011;62920;53.572;10.050;2022-09-25T00:05:26;19.17;;;10.98;;
74471;SDS011;62920;53.572;10.050;2022-09-25T00:07:51;18.85;;;10.40;;
74471;SDS011;62920;53.572;10.050;2022-09-25T00:10:17;23.98;;;11.13;;
74471;SDS011;62920;53.572;10.050;2022-09-25T00:12:42;24.92;;;11.65;;
74471;SDS011;62920;53.572;10.050;2022-09-25T00:15:08;19.80;;;11.35;;
74471;SDS011;62920;53.572;10.050;2022-09-25T00:17:34;20.55;;;11.13;;
74471;SDS011;62920;53.572;10.050;2022-09-25T00:19:59;21.15;;;11.20;;
74471;SDS011;62920;53.572;10.050;2022-09-25T00:22:25;20.38;;;11.18;;
74471;SDS011;62920;53.572;10.050;2022-09-25T00:24:52;23.60;;;12.23;;
74471;SDS011;62920;53.572;10.050;2022-09-25T00:27:18;24.38;;;12.00;;
74471;SDS011;62920;53.572;10.050;2022-09-25T00:29:44;22.90;;;12.23;;
74471;SDS011;62920;53.572;10.050;2022-09-25T00:32:11;22.92;;;11.75;;
74471;SDS011;62920;53.572;10.050;2022-09-25T00:34:37;25.70;;;12.77;;
74471;SDS011;62920;53.572;10.050;2022-09-25T00:37:03;24.00;;;12.30;;
74471;SDS011;62920;53.572;10.050;2022-09-25T00:39:29;27.15;;;13.32;;
74471;SDS011;62920;53.572;10.050;2022-09-25T00:41:55;24.63;;;11.88;;
74471;SDS011;62920;53.572;10.050;2022-09-25T00:47:08;27.63;;;12.75;;
74471;SDS011;62920;53.572;10.050;2022-09-25T00:49:35;26.77;;;12.93;;
74471;SDS011;62920;53.572;10.050;2022-09-25T00:52:10;28.40;;;13.13;;
74471;SDS011;62920;53.572;10.050;2022-09-25T00:55:01;27.15;;;13.13;;
74471;SDS011;62920;53.572;10.050;2022-09-25T00:57:27;29.80;;;12.68;;
74471;SDS011;62920;53.572;10.050;2022-09-25T00:59:56;28.33;;;12.00;;
74471;SDS011;62920;53.572;10.050;2022-09-25T01:02:28;32.38;;;14.43;;
74471;SDS011;62920;53.572;10.050;2022-09-25T01:04:59;27.98;;;12.15;;
74471;SDS011;62920;53.572;10.050;2022-09-25T01:07:29;24.85;;;12.70;;
74471;SDS011;62920;53.572;10.050;2022-09-25T01:09:56;30.27;;;14.10;;
74471;SDS011;62920;53.572;10.050;2022-09-25T01:12:23;27.00;;;11.95;;
74471;SDS011;62920;53.572;10.050;2022-09-25T01:14:49;26.70;;;12.70;;
74471;SDS011;62920;53.572;10.050;2022-09-25T01:17:16;25.38;;;12.20;;
74471;SDS011;62920;53.572;10.050;2022-09-25T01:20:15;26.58;;;12.80;;
74471;SDS011;62920;53.572;10.050;2022-09-25T01:30:35;24.13;;;12.43;;
74471;SDS011;62920;53.572;10.050;2022-09-25T01:43:13;28.85;;;12.90;;
74471;SDS011;62920;53.572;10.050;2022-09-25T01:46:04;30.58;;;13.77;;
74471;SDS011;62920;53.572;10.050;2022-09-25T01:48:35;28.23;;;12.63;;
74471;SDS011;62920;53.572;10.050;2022-09-25T01:51:07;27.75;;;13.65;;
74471;SDS011;62920;53.572;10.050;2022-09-25T01:53:43;34.80;;;13.70;;
74471;SDS011;62920;53.572;10.050;2022-09-25T01:56:12;31.90;;;13.40;;
74471;SDS011;62920;53.572;10.050;2022-09-25T01:58:48;31.08;;;14.82;;
74471;SDS011;62920;53.572;10.050;2022-09-25T02:01:18;32.80;;;13.57;;
74471;SDS011;62920;53.572;10.050;2022-09-25T02:03:57;28.83;;;13.30;;
74471;SDS011;62920;53.572;10.050;2022-09-25T02:06:25;30.90;;;13.20;;
74471;SDS011;62920;53.572;10.050;2022-09-25T02:08:54;31.75;;;12.93;;
74471;SDS011;62920;53.572;10.050;2022-09-25T02:11:25;30.95;;;14.20;;
74471;SDS011;62920;53.572;10.050;2022-09-25T02:14:00;28.92;;;13.30;;
74471;SDS011;62920;53.572;10.050;2022-09-25T02:16:33;29.77;;;14.25;;
74471;SDS011;62920;53.572;10.050;2022-09-25T02:19:00;28.83;;;13.00;;
74471;SDS011;62920;53.572;10.050;2022-09-25T02:27:21;27.77;;;12.05;;
74471;SDS011;62920;53.572;10.050;2022-09-25T02:29:47;26.35;;;12.85;;
74471;SDS011;62920;53.572;10.050;2022-09-25T02:32:13;29.00;;;13.00;;
74471;SDS011;62920;53.572;10.050;2022-09-25T02:34:41;26.58;;;12.02;;
74471;SDS011;62920;53.572;10.050;2022-09-25T02:37:16;26.98;;;12.73;;
74471;SDS011;62920;53.572;10.050;2022-09-25T02:39:47;27.13;;;12.73;;
74471;SDS011;62920;53.572;10.050;2022-09-25T02:45:18;24.60;;;10.90;;
74471;SDS011;62920;53.572;10.050;2022-09-25T02:55:51;21.63;;;10.73;;
74471;SDS011;62920;53.572;10.050;2022-09-25T03:00:59;24.73;;;10.95;;
74471;SDS011;62920;53.572;10.050;2022-09-25T03:03:25;24.42;;;11.73;;
74471;SDS011;62920;53.572;10.050;2022-09-25T03:05:54;20.58;;;10.35;;
74471;SDS011;62920;53.572;10.050;2022-09-25T03:08:20;26.08;;;11.23;;
74471;SDS011;62920;53.572;10.050;2022-09-25T03:11:02;21.58;;;10.65;;
74471;SDS011;62920;53.572;10.050;2022-09-25T03:13:29;23.10;;;10.30;;
74471;SDS011;62920;53.572;10.050;2022-09-25T03:15:57;21.30;;;10.45;;
74471;SDS011;62920;53.572;10.050;2022-09-25T03:18:25;24.02;;;10.90;;
74471;SDS011;62920;53.572;10.050;2022-09-25T03:20:52;22.23;;;9.73;;
74471;SDS011;62920;53.572;10.050;2022-09-25T03:23:18;22.27;;;10.18;;
74471;SDS011;62920;53.572;10.050;2022-09-25T03:25:43;19.55;;;9.25;;
74471;SDS011;62920;53.572;10.050;2022-09-25T03:28:09;22.25;;;9.23;;
74471;SDS011;62920;53.572;10.050;2022-09-25T03:30:35;22.00;;;10.02;;
74471;SDS011;62920;53.572;10.050;2022-09-25T03:33:04;19.83;;;10.02;;
74471;SDS011;62920;53.572;10.050;2022-09-25T03:35:34;20.98;;;10.38;;
74471;SDS011;62920;53.572;10.050;2022-09-25T03:38:00;21.38;;;9.80;;
74471;SDS011;62920;53.572;10.050;2022-09-25T03:40:25;24.00;;;10.88;;
74471;SDS011;62920;53.572;10.050;2022-09-25T03:42:51;22.67;;;10.95;;
74471;SDS011;62920;53.572;10.050;2022-09-25T03:45:16;21.13;;;10.48;;
74471;SDS011;62920;53.572;10.050;2022-09-25T03:47:41;24.98;;;11.32;;
74471;SDS011;62920;53.572;10.050;2022-09-25T03:50:07;24.05;;;10.60;;
74471;SDS011;62920;53.572;10.050;2022-09-25T03:52:33;25.83;;;12.90;;
74471;SDS011;62920;53.572;10.050;2022-09-25T03:54:58;24.27;;;11.70;;
74471;SDS011;62920;53.572;10.050;2022-09-25T03:57:24;25.85;;;12.20;;
74471;SDS011;62920;53.572;10.050;2022-09-25T03:59:49;25.23;;;12.18;;
74471;SDS011;62920;53.572;10.050;2022-09-25T04:02:15;21.10;;;11.63;;
74471;SDS011;62920;53.572;10.050;2022-09-25T04:04:40;25.90;;;12.52;;
74471;SDS011;62920;53.572;10.050;2022-09-25T04:07:06;21.45;;;12.00;;
74471;SDS011;62920;53.572;10.050;2022-09-25T04:09:32;22.45;;;12.13;;
74471;SDS011;62920;53.572;10.050;2022-09-25T04:11:58;22.58;;;12.35;;
74471;SDS011;62920;53.572;10.050;2022-09-25T04:14:23;23.30;;;12.38;;
74471;SDS011;62920;53.572;10.050;2022-09-25T04:16:49;24.73;;;12.48;;
74471;SDS011;62920;53.572;10.050;2022-09-25T04:19:15;28.85;;;13.43;;
74471;SDS011;62920;53.572;10.050;2022-09-25T04:21:41;30.10;;;14.38;;
74471;SDS011;62920;53.572;10.050;2022-09-25T04:24:06;27.95;;;13.40;;
74471;SDS011;62920;53.572;10.050;2022-09-25T04:26:50;23.40;;;12.88;;
74471;SDS011;62920;53.572;10.050;2022-09-25T04:29:17;30.77;;;13.57;;
74471;SDS011;62920;53.572;10.050;2022-09-25T04:31:43;26.27;;;14.23;;
74471;SDS011;62920;53.572;10.050;2022-09-25T04:34:28;26.38;;;12.38;;
74471;SDS011;62920;53.572;10.050;2022-09-25T04:36:54;30.55;;;14.15;;
74471;SDS011;62920;53.572;10.050;2022-09-25T04:39:19;27.30;;;14.15;;
74471;SDS011;62920;53.572;10.050;2022-09-25T04:41:45;26.27;;;13.48;;
74471;SDS011;62920;53.572;10.050;2022-09-25T04:44:10;23.25;;;13.13;;
74471;SDS011;62920;53.572;10.050;2022-09-25T04:46:36;31.20;;;14.90;;
74471;SDS011;62920;53.572;10.050;2022-09-25T04:49:02;23.83;;;13.50;;
74471;SDS011;62920;53.572;10.050;2022-09-25T04:51:27;28.65;;;14.23;;
74471;SDS011;62920;53.572;10.050;2022-09-25T04:53:52;22.90;;;13.43;;
74471;SDS011;62920;53.572;10.050;2022-09-25T04:56:18;25.38;;;13.63;;
74471;SDS011;62920;53.572;10.050;2022-09-25T04:58:46;29.02;;;14.60;;
74471;SDS011;62920;53.572;10.050;2022-09-25T05:01:13;23.30;;;12.80;;
74471;SDS011;62920;53.572;10.050;2022-09-25T05:03:39;25.77;;;14.18;;
74471;SDS011;62920;53.572;10.050;2022-09-25T05:06:04;24.02;;;13.20;;
74471;SDS011;62920;53.572;10.050;2022-09-25T05:08:30;24.77;;;12.80;;
74471;SDS011;62920;53.572;10.050;2022-09-25T05:10:55;26.33;;;12.95;;
74471;SDS011;62920;53.572;10.050;2022-09-25T05:13:20;23.30;;;11.85;;
74471;SDS011;62920;53.572;10.050;2022-09-25T05:15:46;22.52;;;13.02;;
74471;SDS011;62920;53.572;10.050;2022-09-25T05:18:15;22.70;;;12.93;;
74471;SDS011;62920;53.572;10.050;2022-09-25T05:20:42;25.40;;;13.45;;
74471;SDS011;62920;53.572;10.050;2022-09-25T05:23:08;23.52;;;11.85;;
74471;SDS011;62920;53.572;10.050;2022-09-25T05:25:33;24.55;;;13.15;;
74471;SDS011;62920;53.572;10.050;2022-09-25T05:27:59;24.73;;;12.82;;
74471;SDS011;62920;53.572;10.050;2022-09-25T05:30:26;22.20;;;12.60;;
74471;SDS011;62920;53.572;10.050;2022-09-25T05:32:53;21.75;;;13.02;;
74471;SDS011;62920;53.572;10.050;2022-09-25T05:35:19;24.02;;;13.55;;
74471;SDS011;62920;53.572;10.050;2022-09-25T05:37:46;23.13;;;13.05;;
74471;SDS011;62920;53.572;10.050;2022-09-25T05:40:12;23.38;;;12.20;;
74471;SDS011;62920;53.572;10.050;2022-09-25T05:42:39;23.80;;;13.07;;
74471;SDS011;62920;53.572;10.050;2022-09-25T05:45:05;21.92;;;11.43;;
74471;SDS011;62920;53.572;10.050;2022-09-25T05:47:31;23.08;;;12.88;;
74471;SDS011;62920;53.572;10.050;2022-09-25T05:49:56;22.20;;;12.90;;
74471;SDS011;62920;53.572;10.050;2022-09-25T05:52:21;25.17;;;13.23;;
74471;SDS011;62920;53.572;10.050;2022-09-25T05:54:47;24.63;;;12.20;;
74471;SDS011;62920;53.572;10.050;2022-09-25T05:57:12;23.83;;;13.07;;
74471;SDS011;62920;53.572;10.050;2022-09-25T05:59:37;19.77;;;12.55;;
74471;SDS011;62920;53.572;10.050;2022-09-25T06:02:03;22.55;;;12.98;;
74471;SDS011;62920;53.572;10.050;2022-09-25T06:04:28;22.10;;;12.80;;
74471;SDS011;62920;53.572;10.050;2022-09-25T06:06:53;22.85;;;12.55;;
74471;SDS011;62920;53.572;10.050;2022-09-25T06:09:19;25.15;;;13.55;;
74471;SDS011;62920;53.572;10.050;2022-09-25T06:11:44;22.77;;;13.25;;
74471;SDS011;62920;53.572;10.050;2022-09-25T06:14:11;22.80;;;12.75;;
74471;SDS011;62920;53.572;10.050;2022-09-25T06:16:40;23.48;;;12.15;;
74471;SDS011;62920;53.572;10.050;2022-09-25T06:19:06;22.45;;;12.40;;
74471;SDS011;62920;53.572;10.050;2022-09-25T06:21:31;23.73;;;13.52;;
74471;SDS011;62920;53.572;10.050;2022-09-25T06:23:57;23.98;;;12.85;;
74471;SDS011;62920;53.572;10.050;2022-09-25T06:26:22;22.75;;;12.18;;
74471;SDS011;62920;53.572;10.050;2022-09-25T06:31:14;21.37;;;11.53;;
74471;SDS011;62920;53.572;10.050;2022-09-25T06:33:39;22.20;;;11.98;;
74471;SDS011;62920;53.572;10.050;2022-09-25T06:36:05;24.30;;;13.13;;
74471;SDS011;62920;53.572;10.050;2022-09-25T06:38:31;22.90;;;12.07;;
74471;SDS011;62920;53.572;10.050;2022-09-25T06:40:59;24.65;;;13.95;;
74471;SDS011;62920;53.572;10.050;2022-09-25T06:43:25;21.63;;;11.98;;
74471;SDS011;62920;53.572;10.050;2022-09-25T06:45:50;23.95;;;13.13;;
74471;SDS011;62920;53.572;10.050;2022-09-25T06:48:16;21.60;;;13.07;;
74471;SDS011;62920;53.572;10.050;2022-09-25T06:50:46;21.60;;;12.30;;
74471;SDS011;62920;53.572;10.050;2022-09-25T06:53:13;24.35;;;12.98;;
74471;SDS011;62920;53.572;10.050;2022-09-25T06:55:39;22.48;;;12.57;;
74471;SDS011;62920;53.572;10.050;2022-09-25T06:58:05;25.70;;;13.85;;
74471;SDS011;62920;53.572;10.050;2022-09-25T07:00:32;25.30;;;13.48;;
74471;SDS011;62920;53.572;10.050;2022-09-25T07:02:58;26.67;;;15.07;;
74471;SDS011;62920;53.572;10.050;2022-09-25T07:05:43;26.20;;;15.00;;
74471;SDS011;62920;53.572;10.050;2022-09-25T07:08:13;27.60;;;15.18;;
74471;SDS011;62920;53.572;10.050;2022-09-25T07:10:45;24.90;;;14.93;;
74471;SDS011;62920;53.572;10.050;2022-09-25T07:13:15;26.83;;;15.15;;
74471;SDS011;62920;53.572;10.050;2022-09-25T07:15:55;25.23;;;14.93;;
74471;SDS011;62920;53.572;10.050;2022-09-25T07:18:25;27.27;;;14.80;;
74471;SDS011;62920;53.572;10.050;2022-09-25T07:20:51;25.77;;;14.90;;
74471;SDS011;62920;53.572;10.050;2022-09-25T07:23:18;26.30;;;14.50;;
74471;SDS011;62920;53.572;10.050;2022-09-25T07:25:45;28.80;;;15.27;;
74471;SDS011;62920;53.572;10.050;2022-09-25T07:28:11;26.92;;;15.40;;
74471;SDS011;62920;53.572;10.050;2022-09-25T07:30:38;24.30;;;14.25;;
74471;SDS011;62920;53.572;10.050;2022-09-25T07:33:04;23.60;;;13.73;;
74471;SDS011;62920;53.572;10.050;2022-09-25T07:35:29;23.75;;;13.85;;
74471;SDS011;62920;53.572;10.050;2022-09-25T07:37:58;24.02;;;14.57;;
74471;SDS011;62920;53.572;10.050;2022-09-25T07:40:23;25.98;;;14.60;;
74471;SDS011;62920;53.572;10.050;2022-09-25T07:42:51;24.13;;;14.00;;
74471;SDS011;62920;53.572;10.050;2022-09-25T07:45:17;22.55;;;13.25;;
74471;SDS011;62920;53.572;10.050;2022-09-25T07:47:42;24.38;;;13.38;;
74471;SDS011;62920;53.572;10.050;2022-09-25T07:50:07;26.08;;;14.52;;
74471;SDS011;62920;53.572;10.050;2022-09-25T07:52:33;22.35;;;13.63;;
74471;SDS011;62920;53.572;10.050;2022-09-25T07:54:58;24.20;;;14.13;;
74471;SDS011;62920;53.572;10.050;2022-09-25T07:57:24;26.35;;;14.40;;
74471;SDS011;62920;53.572;10.050;2022-09-25T07:59:49;24.10;;;13.05;;
74471;SDS011;62920;53.572;10.050;2022-09-25T08:02:15;22.20;;;13.55;;
74471;SDS011;62920;53.572;10.050;2022-09-25T08:04:40;21.13;;;13.50;;
74471;SDS011;62920;53.572;10.050;2022-09-25T08:07:05;19.80;;;11.43;;
74471;SDS011;62920;53.572;10.050;2022-09-25T08:09:31;18.65;;;10.77;;
74471;SDS011;62920;53.572;10.050;2022-09-25T08:11:56;19.95;;;11.50;;
74471;SDS011;62920;53.572;10.050;2022-09-25T08:14:22;15.90;;;8.52;;
74471;SDS011;62920;53.572;10.050;2022-09-25T08:16:47;12.13;;;6.82;;
74471;SDS011;62920;53.572;10.050;2022-09-25T08:19:13;9.95;;;5.60;;
74471;SDS011;62920;53.572;10.050;2022-09-25T08:21:41;9.48;;;5.00;;
74471;SDS011;62920;53.572;10.050;2022-09-25T08:24:07;7.63;;;4.18;;
74471;SDS011;62920;53.572;10.050;2022-09-25T08:26:34;6.55;;;4.18;;
74471;SDS011;62920;53.572;10.050;2022-09-25T08:29:00;7.10;;;4.20;;
74471;SDS011;62920;53.572;10.050;2022-09-25T08:31:26;5.97;;;3.60;;
74471;SDS011;62920;53.572;10.050;2022-09-25T08:33:51;6.70;;;3.58;;
74471;SDS011;62920;53.572;10.050;2022-09-25T08:36:18;6.32;;;3.90;;
74471;SDS011;62920;53.572;10.050;2022-09-25T08:38:43;6.10;;;4.30;;
74471;SDS011;62920;53.572;10.050;2022-09-25T08:41:17;5.93;;;3.85;;
74471;SDS011;62920;53.572;10.050;2022-09-25T08:43:59;7.55;;;4.60;;
74471;SDS011;62920;53.572;10.050;2022-09-25T08:49:24;7.18;;;4.72;;
74471;SDS011;62920;53.572;10.050;2022-09-25T08:51:56;7.30;;;4.40;;
74471;SDS011;62920;53.572;10.050;2022-09-25T08:54:24;8.05;;;5.03;;
74471;SDS011;62920;53.572;10.050;2022-09-25T08:56:52;8.25;;;4.97;;
74471;SDS011;62920;53.572;10.050;2022-09-25T08:59:25;8.32;;;5.88;;
74471;SDS011;62920;53.572;10.050;2022-09-25T09:02:00;12.30;;;5.65;;
74471;SDS011;62920;53.572;10.050;2022-09-25T09:04:28;8.75;;;5.50;;
74471;SDS011;62920;53.572;10.050;2022-09-25T09:07:03;9.20;;;6.07;;
74471;SDS011;62920;53.572;10.050;2022-09-25T09:15:16;9.85;;;6.00;;
74471;SDS011;62920;53.572;10.050;2022-09-25T09:17:47;10.18;;;6.30;;
74471;SDS011;62920;53.572;10.050;2022-09-25T09:20:14;8.00;;;5.43;;
74471;SDS011;62920;53.572;10.050;2022-09-25T09:22:45;8.80;;;4.55;;
74471;SDS011;62920;53.572;10.050;2022-09-25T09:28:04;7.88;;;4.63;;
74471;SDS011;62920;53.572;10.050;2022-09-25T09:30:48;6.40;;;4.10;;
74471;SDS011;62920;53.572;10.050;2022-09-25T09:33:26;9.40;;;3.88;;
74471;SDS011;62920;53.572;10.050;2022-09-25T09:38:41;8.18;;;3.55;;
74471;SDS011;62920;53.572;10.050;2022-09-25T09:41:15;6.45;;;4.00;;
74471;SDS011;62920;53.572;10.050;2022-09-25T09:46:39;5.80;;;3.70;;
74471;SDS011;62920;53.572;10.050;2022-09-25T09:52:37;5.80;;;4.18;;
74471;SDS011;62920;53.572;10.050;2022-09-25T09:57:58;8.90;;;4.47;;
74471;SDS011;62920;53.572;10.050;2022-09-25T10:00:29;7.30;;;4.72;;
74471;SDS011;62920;53.572;10.050;2022-09-25T10:05:30;7.45;;;4.93;;
74471;SDS011;62920;53.572;10.050;2022-09-25T10:07:58;8.73;;;5.50;;
74471;SDS011;62920;53.572;10.050;2022-09-25T10:10:29;8.38;;;5.57;;
74471;SDS011;62920;53.572;10.050;2022-09-25T10:12:56;10.07;;;5.80;;
74471;SDS011;62920;53.572;10.050;2022-09-25T10:17:58;9.40;;;6.28;;
74471;SDS011;62920;53.572;10.050;2022-09-25T10:20:26;10.75;;;6.68;;
74471;SDS011;62920;53.572;10.050;2022-09-25T10:22:55;10.70;;;7.03;;
74471;SDS011;62920;53.572;10.050;2022-09-25T10:25:35;12.02;;;7.20;;
74471;SDS011;62920;53.572;10.050;2022-09-25T10:30:46;8.80;;;5.97;;
74471;SDS011;62920;53.572;10.050;2022-09-25T10:33:14;9.77;;;6.00;;
74471;SDS011;62920;53.572;10.050;2022-09-25T10:41:18;9.73;;;5.20;;
74471;SDS011;62920;53.572;10.050;2022-09-25T10:43:56;8.73;;;5.13;;
74471;SDS011;62920;53.572;10.050;2022-09-25T10:46:28;9.00;;;4.57;;
74471;SDS011;62920;53.572;10.050;2022-09-25T10:49:16;8.30;;;5.07;;
74471;SDS011;62920;53.572;10.050;2022-09-25T10:52:01;10.68;;;5.57;;
74471;SDS011;62920;53.572;10.050;2022-09-25T10:54:29;7.90;;;5.07;;
74471;SDS011;62920;53.572;10.050;2022-09-25T10:56:55;9.32;;;4.40;;
74471;SDS011;62920;53.572;10.050;2022-09-25T10:59:21;7.50;;;4.95;;
74471;SDS011;62920;53.572;10.050;2022-09-25T11:06:46;7.82;;;4.78;;
74471;SDS011;62920;53.572;10.050;2022-09-25T11:09:23;9.43;;;5.35;;
74471;SDS011;62920;53.572;10.050;2022-09-25T11:11:50;10.15;;;5.65;;
74471;SDS011;62920;53.572;10.050;2022-09-25T11:14:26;10.68;;;5.70;;
74471;SDS011;62920;53.572;10.050;2022-09-25T11:16:57;11.23;;;5.07;;
74471;SDS011;62920;53.572;10.050;2022-09-25T11:27:19;9.73;;;5.00;;
74471;SDS011;62920;53.572;10.050;2022-09-25T11:32:32;9.00;;;4.85;;
74471;SDS011;62920;53.572;10.050;2022-09-25T11:46:19;6.90;;;4.68;;
74471;SDS011;62920;53.572;10.050;2022-09-25T11:55:26;9.13;;;5.00;;
74471;SDS011;62920;53.572;10.050;2022-09-25T11:57:59;8.32;;;5.18;;
74471;SDS011;62920;53.572;10.050;2022-09-25T12:20:16;9.25;;;3.90;;
74471;SDS011;62920;53.572;10.050;2022-09-25T12:36:23;7.90;;;3.33;;
74471;SDS011;62920;53.572;10.050;2022-09-25T12:41:37;7.88;;;4.38;;
74471;SDS011;62920;53.572;10.050;2022-09-25T12:44:26;8.88;;;3.90;;
74471;SDS011;62920;53.572;10.050;2022-09-25T12:49:32;7.15;;;4.38;;
74471;SDS011;62920;53.572;10.050;2022-09-25T12:52:22;8.68;;;4.40;;
74471;SDS011;62920;53.572;10.050;2022-09-25T12:54:54;8.82;;;4.43;;
74471;SDS011;62920;53.572;10.050;2022-09-25T12:57:24;7.97;;;4.63;;
74471;SDS011;62920;53.572;10.050;2022-09-25T13:05:36;6.57;;;4.15;;
74471;SDS011;62920;53.572;10.050;2022-09-25T13:08:20;7.28;;;4.15;;
74471;SDS011;62920;53.572;10.050;2022-09-25T13:13:25;7.80;;;3.80;;
74471;SDS011;62920;53.572;10.050;2022-09-25T13:15:54;6.70;;;3.65;;
74471;SDS011;62920;53.572;10.050;2022-09-25T13:18:24;5.85;;;3.58;;
74471;SDS011;62920;53.572;10.050;2022-09-25T13:25:50;5.80;;;3.43;;
74471;SDS011;62920;53.572;10.050;2022-09-25T13:28:36;7.07;;;2.70;;
74471;SDS011;62920;53.572;10.050;2022-09-25T13:33:53;5.85;;;2.60;;
74471;SDS011;62920;53.572;10.050;2022-09-25T13:36:51;4.70;;;2.70;;
74471;SDS011;62920;53.572;10.050;2022-09-25T13:42:13;7.30;;;3.10;;
74471;SDS011;62920;53.572;10.050;2022-09-25T13:50:34;6.20;;;2.70;;
74471;SDS011;62920;53.572;10.050;2022-09-25T14:00:25;7.32;;;2.97;;
74471;SDS011;62920;53.572;10.050;2022-09-25T14:02:52;6.45;;;2.88;;
74471;SDS011;62920;53.572;10.050;2022-09-25T14:05:25;6.07;;;2.55;;
74471;SDS011;62920;53.572;10.050;2022-09-25T14:07:59;5.55;;;2.65;;
74471;SDS011;62920;53.572;10.050;2022-09-25T14:10:25;6.40;;;3.03;;
74471;SDS011;62920;53.572;10.050;2022-09-25T14:12:51;6.80;;;2.40;;
74471;SDS011;62920;53.572;10.050;2022-09-25T14:15:22;6.93;;;2.38;;
74471;SDS011;62920;53.572;10.050;2022-09-25T14:20:23;4.75;;;1.73;;
74471;SDS011;62920;53.572;10.050;2022-09-25T14:22:54;4.97;;;1.70;;
74471;SDS011;62920;53.572;10.050;2022-09-25T14:25:34;3.88;;;1.77;;
74471;SDS011;62920;53.572;10.050;2022-09-25T14:28:23;6.20;;;1.90;;
74471;SDS011;62920;53.572;10.050;2022-09-25T14:30:57;6.07;;;2.08;;
74471;SDS011;62920;53.572;10.050;2022-09-25T14:33:32;5.97;;;1.80;;
74471;SDS011;62920;53.572;10.050;2022-09-25T14:39:01;7.55;;;2.20;;
74471;SDS011;62920;53.572;10.050;2022-09-25T14:47:25;6.63;;;3.03;;
74471;SDS011;62920;53.572;10.050;2022-09-25T14:49:57;4.22;;;1.60;;
74471;SDS011;62920;53.572;10.050;2022-09-25T14:52:23;6.32;;;1.90;;
74471;SDS011;62920;53.572;10.050;2022-09-25T14:54:52;10.00;;;2.30;;
74471;SDS011;62920;53.572;10.050;2022-09-25T14:57:22;4.22;;;1.90;;
74471;SDS011;62920;53.572;10.050;2022-09-25T14:59:55;6.03;;;2.17;;
74471;SDS011;62920;53.572;10.050;2022-09-25T15:02:27;4.80;;;1.83;;
74471;SDS011;62920;53.572;10.050;2022-09-25T15:04:58;5.63;;;1.92;;
74471;SDS011;62920;53.572;10.050;2022-09-25T15:07:41;6.10;;;2.30;;
74471;SDS011;62920;53.572;10.050;2022-09-25T15:13:12;4.30;;;1.60;;
74471;SDS011;62920;53.572;10.050;2022-09-25T15:15:50;3.38;;;1.23;;
74471;SDS011;62920;53.572;10.050;2022-09-25T15:18:36;8.38;;;1.50;;
74471;SDS011;62920;53.572;10.050;2022-09-25T15:21:02;6.82;;;1.85;;
74471;SDS011;62920;53.572;10.050;2022-09-25T15:23:27;4.00;;;1.33;;
74471;SDS011;62920;53.572;10.050;2022-09-25T15:25:54;5.35;;;1.55;;
74471;SDS011;62920;53.572;10.050;2022-09-25T15:28:21;7.97;;;1.75;;
74471;SDS011;62920;53.572;10.050;2022-09-25T15:30:59;5.80;;;1.10;;
74471;SDS011;62920;53.572;10.050;2022-09-25T15:33:27;6.07;;;1.52;;
74471;SDS011;62920;53.572;10.050;2022-09-25T15:35:58;5.20;;;1.35;;
74471;SDS011;62920;53.572;10.050;2022-09-25T15:38:34;3.53;;;1.27;;
74471;SDS011;62920;53.572;10.050;2022-09-25T15:41:01;5.30;;;1.48;;
74471;SDS011;62920;53.572;10.050;2022-09-25T15:43:27;6.13;;;1.70;;
74471;SDS011;62920;53.572;10.050;2022-09-25T15:48:24;5.43;;;1.55;;
74471;SDS011;62920;53.572;10.050;2022-09-25T15:50:53;5.10;;;1.77;;
74471;SDS011;62920;53.572;10.050;2022-09-25T15:53:24;8.63;;;2.03;;
74471;SDS011;62920;53.572;10.050;2022-09-25T15:58:43;6.72;;;2.25;;
74471;SDS011;62920;53.572;10.050;2022-09-25T16:01:11;6.30;;;1.10;;
74471;SDS011;62920;53.572;10.050;2022-09-25T16:03:57;12.10;;;1.92;;
74471;SDS011;62920;53.572;10.050;2022-09-25T16:06:42;4.15;;;1.00;;
74471;SDS011;62920;53.572;10.050;2022-09-25T16:09:27;3.30;;;1.10;;
74471;SDS011;62920;53.572;10.050;2022-09-25T16:14:43;4.15;;;0.88;;
74471;SDS011;62920;53.572;10.050;2022-09-25T16:17:42;5.72;;;1.20;;
74471;SDS011;62920;53.572;10.050;2022-09-25T16:22:55;4.30;;;1.30;;
74471;SDS011;62920;53.572;10.050;2022-09-25T16:25:22;5.45;;;1.17;;
74471;SDS011;62920;53.572;10.050;2022-09-25T16:27:51;10.50;;;1.20;;
74471;SDS011;62920;53.572;10.050;2022-09-25T16:30:19;3.85;;;1.10;;
74471;SDS011;62920;53.572;10.050;2022-09-25T16:32:52;4.63;;;1.20;;
74471;SDS011;62920;53.572;10.050;2022-09-25T16:35:21;3.38;;;1.02;;
74471;SDS011;62920;53.572;10.050;2022-09-25T16:37:49;4.72;;;1.17;;
74471;SDS011;62920;53.572;10.050;2022-09-25T16:42:44;3.35;;;0.93;;
74471;SDS011;62920;53.572;10.050;2022-09-25T16:47:40;6.03;;;1.48;;
74471;SDS011;62920;53.572;10.050;2022-09-25T16:50:07;7.78;;;1.13;;
74471;SDS011;62920;53.572;10.050;2022-09-25T16:52:34;4.68;;;1.63;;
74471;SDS011;62920;53.572;10.050;2022-09-25T16:55:02;5.78;;;1.55;;
74471;SDS011;62920;53.572;10.050;2022-09-25T16:57:30;6.30;;;1.45;;
74471;SDS011;62920;53.572;10.050;2022-09-25T16:59:59;4.15;;;1.20;;
74471;SDS011;62920;53.572;10.050;2022-09-25T17:02:26;6.30;;;1.52;;
74471;SDS011;62920;53.572;10.050;2022-09-25T17:05:06;6.65;;;1.10;;
74471;SDS011;62920;53.572;10.050;2022-09-25T17:07:35;5.03;;;1.40;;
74471;SDS011;62920;53.572;10.050;2022-09-25T17:10:00;3.53;;;1.10;;
74471;SDS011;62920;53.572;10.050;2022-09-25T17:12:26;7.03;;;1.45;;
74471;SDS011;62920;53.572;10.050;2022-09-25T17:14:53;6.47;;;1.33;;
74471;SDS011;62920;53.572;10.050;2022-09-25T17:17:19;5.45;;;1.58;;
74471;SDS011;62920;53.572;10.050;2022-09-25T17:19:46;4.00;;;1.38;;
74471;SDS011;62920;53.572;10.050;2022-09-25T17:22:12;5.88;;;1.35;;
74471;SDS011;62920;53.572;10.050;2022-09-25T17:24:40;4.15;;;1.30;;
74471;SDS011;62920;53.572;10.050;2022-09-25T17:27:12;5.18;;;1.50;;
74471;SDS011;62920;53.572;10.050;2022-09-25T17:29:38;4.47;;;1.60;;
74471;SDS011;62920;53.572;10.050;2022-09-25T17:32:04;7.05;;;1.48;;
74471;SDS011;62920;53.572;10.050;2022-09-25T17:34:32;6.78;;;1.95;;
74471;SDS011;62920;53.572;10.050;2022-09-25T17:36:58;24.50;;;2.50;;
74471;SDS011;62920;53.572;10.050;2022-09-25T17:39:24;5.97;;;1.30;;
74471;SDS011;62920;53.572;10.050;2022-09-25T17:41:49;7.35;;;1.20;;
74471;SDS011;62920;53.572;10.050;2022-09-25T17:44:18;5.43;;;1.30;;
74471;SDS011;62920;53.572;10.050;2022-09-25T17:46:51;6.22;;;1.50;;
74471;SDS011;62920;53.572;10.050;2022-09-25T17:49:18;5.65;;;1.48;;
74471;SDS011;62920;53.572;10.050;2022-09-25T17:51:43;7.55;;;1.80;;
74471;SDS011;62920;53.572;10.050;2022-09-25T17:54:09;6.15;;;1.50;;
74471;SDS011;62920;53.572;10.050;2022-09-25T17:56:36;7.22;;;1.60;;
74471;SDS011;62920;53.572;10.050;2022-09-25T17:59:03;4.85;;;1.40;;
74471;SDS011;62920;53.572;10.050;2022-09-25T18:01:30;6.80;;;1.63;;
74471;SDS011;62920;53.572;10.050;2022-09-25T18:03:57;7.90;;;2.10;;
74471;SDS011;62920;53.572;10.050;2022-09-25T18:06:25;5.50;;;1.40;;